Chathill, United Kingdom
Current Conditions -  °F | °C
As of 7:50 AM on Wednesday 26 Nov 2014 (Local Time) from EGQM Reporting Station
Haze Haze  
Wind Chill: 39°   Ceiling: 4100
Heat Index: 43°   Visibility: 4mi
Dew Point: 43°   Wind: 6mph
Humidity: 100%   Direction: 330°NNW
Pressure: 30"   Gusts: NA
Location:  55.55°N, 1.67°W
Report Text: EGQM 260750Z AUTO 33005KT 7000 BR FEW009/// SCT017/// BKN041/// 06/06 Q1016
Loading
Personal Weather Stations






























Interactive Weather Map New forecast layout! Learn more

10-Day Weather Forecast

Advertisements
Track Severe Weather on mobile